Time;durP1;ratioP1;P1;durP2;ratioP2;P2;SDS_P1;SDS_P2;PMS_P1;PMS_P2;Temp;Humidity;BMP_temperature;BMP_pressure;BME280_temperature;BME280_humidity;BME280_pressure;Samples;Min_cycle;Max_cycle;Signal;HPM_P1;HPM_P2
2022/01/29 00:01:33;;;;;;;8.20;4.55;;;;;;;19.98;38.18;102518.47;5057860;28;20485;-64
2022/01/29 00:03:59;;;;;;;7.88;4.38;;;;;;;19.92;38.31;102508.41;5059638;28;20151;-64
2022/01/29 00:06:25;;;;;;;9.45;4.63;;;;;;;19.88;38.25;102509.69;5059654;28;20128;-64
2022/01/29 00:08:56;;;;;;;8.32;4.03;;;;;;;19.84;38.29;102514.41;5060060;28;20064;-64
2022/01/29 00:11:27;;;;;;;8.38;3.90;;;;;;;19.80;38.35;102523.59;5065697;28;20288;-64
2022/01/29 00:13:53;;;;;;;7.25;4.30;;;;;;;19.82;38.24;102516.38;5081309;28;20228;-64
2022/01/29 00:16:18;;;;;;;19.45;6.03;;;;;;;19.78;38.40;102508.84;5077865;28;20052;-64
2022/01/29 00:18:44;;;;;;;8.90;4.82;;;;;;;19.78;38.25;102493.00;5082072;28;20040;-64
2022/01/29 00:21:09;;;;;;;9.23;4.65;;;;;;;19.69;38.16;102467.38;5078684;28;20044;-64
2022/01/29 00:23:35;;;;;;;10.63;5.00;;;;;;;19.54;38.66;102464.31;5081536;28;20040;-64
2022/01/29 00:26:01;;;;;;;9.32;5.35;;;;;;;19.60;38.66;102485.75;5075336;28;20119;-64
2022/01/29 00:28:27;;;;;;;8.40;4.93;;;;;;;19.59;38.56;102475.31;5080913;28;20035;-64
2022/01/29 00:30:53;;;;;;;8.02;4.63;;;;;;;19.58;38.69;102456.00;5078855;28;20506;-64
2022/01/29 00:33:18;;;;;;;7.93;4.88;;;;;;;19.47;38.87;102460.53;5082218;28;20077;-64
2022/01/29 00:35:44;;;;;;;9.65;4.60;;;;;;;19.45;38.94;102465.97;5082547;28;20067;-64
2022/01/29 00:38:10;;;;;;;8.85;4.82;;;;;;;19.45;38.75;102467.78;5062842;28;20070;-64
2022/01/29 00:40:38;;;;;;;7.90;4.78;;;;;;;19.39;38.80;102481.50;5080512;28;20036;-64
2022/01/29 00:43:05;;;;;;;11.93;5.22;;;;;;;19.41;38.92;102474.31;5079844;28;20059;-64
2022/01/29 00:45:31;;;;;;;9.23;5.55;;;;;;;19.33;38.87;102464.41;5077773;28;20555;-64
2022/01/29 00:47:57;;;;;;;8.30;4.65;;;;;;;19.32;38.97;102458.28;5080567;28;20039;-64
2022/01/29 00:50:23;;;;;;;8.23;4.28;;;;;;;19.27;39.16;102454.41;5081201;28;20036;-65
2022/01/29 00:52:48;;;;;;;10.93;4.30;;;;;;;19.31;38.95;102456.63;5084287;28;20115;-64
2022/01/29 00:55:14;;;;;;;9.27;4.93;;;;;;;19.23;39.14;102448.56;5080479;28;20513;-64
2022/01/29 00:57:40;;;;;;;8.98;4.20;;;;;;;19.12;39.13;102422.25;5080420;28;20636;-64
2022/01/29 01:00:08;;;;;;;8.23;4.55;;;;;;;19.19;39.25;102427.81;5079710;28;20078;-64
2022/01/29 01:02:34;;;;;;;5.78;3.88;;;;;;;19.18;39.14;102420.88;5081815;28;20032;-65
2022/01/29 01:05:00;;;;;;;14.57;4.60;;;;;;;19.18;39.21;102421.69;5077930;28;20043;-64
2022/01/29 01:07:26;;;;;;;8.20;5.28;;;;;;;19.16;39.15;102422.81;5084099;28;20216;-64
2022/01/29 01:09:52;;;;;;;8.35;4.30;;;;;;;19.09;39.01;102419.91;5064032;28;20044;-64
2022/01/29 01:12:18;;;;;;;10.90;4.18;;;;;;;19.07;39.18;102419.19;5077702;28;20171;-64
2022/01/29 01:14:43;;;;;;;8.27;4.47;;;;;;;19.00;39.37;102407.50;5079708;28;20125;-64
2022/01/29 01:17:09;;;;;;;10.50;4.80;;;;;;;18.96;39.36;102388.47;5080705;28;20871;-65
2022/01/29 01:19:35;;;;;;;9.07;4.70;;;;;;;18.98;39.53;102377.75;5075081;28;20035;-64
2022/01/29 01:22:00;;;;;;;11.23;4.80;;;;;;;18.98;39.59;102375.13;5079226;28;20619;-64
2022/01/29 01:24:26;;;;;;;8.00;4.70;;;;;;;19.00;39.38;102381.94;5078011;28;20115;-64
2022/01/29 01:26:52;;;;;;;6.30;3.95;;;;;;;18.87;39.69;102373.44;5079881;28;20489;-64
2022/01/29 01:29:18;;;;;;;11.48;4.50;;;;;;;18.92;39.53;102371.22;5080779;28;20365;-64
2022/01/29 01:31:45;;;;;;;6.88;4.03;;;;;;;18.86;39.66;102381.50;5078700;28;20028;-65
2022/01/29 01:34:16;;;;;;;6.63;3.78;;;;;;;18.87;39.56;102378.72;5078446;28;20032;-64
2022/01/29 01:36:50;;;;;;;8.25;4.43;;;;;;;18.85;39.81;102372.75;5079341;28;20047;-64
2022/01/29 01:39:20;;;;;;;18.65;4.72;;;;;;;18.86;39.72;102370.94;5092169;27;20040;-64
2022/01/29 01:41:55;;;;;;;9.35;5.07;;;;;;;18.88;39.61;102366.38;5077618;28;20040;-64
2022/01/29 01:44:21;;;;;;;7.20;4.90;;;;;;;18.77;39.68;102358.56;5076880;28;20040;-64
2022/01/29 01:46:46;;;;;;;7.53;4.07;;;;;;;18.82;39.60;102341.34;5076919;28;20619;-64
2022/01/29 01:49:12;;;;;;;8.90;4.50;;;;;;;18.77;39.85;102354.09;5087012;28;20042;-64
2022/01/29 01:51:38;;;;;;;7.57;4.40;;;;;;;18.75;39.71;102342.03;5079237;28;20031;-64
2022/01/29 01:54:04;;;;;;;10.02;4.40;;;;;;;18.61;39.80;102312.38;5079209;28;20137;-65
2022/01/29 01:56:29;;;;;;;10.40;4.35;;;;;;;18.71;39.97;102318.56;5081315;28;20036;-64
2022/01/29 01:58:56;;;;;;;8.68;4.32;;;;;;;18.69;39.79;102312.59;5076868;28;20047;-64
2022/01/29 02:01:22;;;;;;;8.13;4.50;;;;;;;18.66;39.82;102297.00;5079254;28;20035;-64
2022/01/29 02:03:48;;;;;;;9.00;4.25;;;;;;;18.66;39.91;102304.91;5079831;28;20040;-64
2022/01/29 02:06:15;;;;;;;8.68;4.22;;;;;;;18.68;39.90;102305.63;5076013;28;20449;-64
2022/01/29 02:08:40;;;;;;;9.48;4.22;;;;;;;18.66;39.78;102297.00;5078460;28;20143;-64
2022/01/29 02:11:07;;;;;;;7.05;4.20;;;;;;;18.70;39.82;102308.97;5075528;28;20151;-65
2022/01/29 02:13:33;;;;;;;7.10;4.00;;;;;;;18.67;39.77;102298.69;5079060;28;20063;-64
2022/01/29 02:15:58;;;;;;;7.55;4.32;;;;;;;18.65;39.78;102289.22;5079436;28;20036;-64
2022/01/29 02:18:24;;;;;;;8.48;4.30;;;;;;;18.63;40.02;102309.63;5076103;28;20039;-64
2022/01/29 02:20:51;;;;;;;9.27;4.90;;;;;;;18.58;40.02;102286.28;5080558;28;20056;-64
2022/01/29 02:23:17;;;;;;;8.07;4.22;;;;;;;18.64;39.87;102284.91;5077317;28;20060;-65
2022/01/29 02:25:50;;;;;;;7.93;3.90;;;;;;;18.49;39.89;102257.22;5080911;28;20121;-64
2022/01/29 02:28:19;;;;;;;8.50;4.63;;;;;;;18.60;39.89;102276.41;5079855;28;20035;-64
2022/01/29 02:30:50;;;;;;;10.55;4.25;;;;;;;18.54;39.97;102266.41;5079462;28;20117;-64
2022/01/29 02:33:17;;;;;;;10.35;4.68;;;;;;;18.54;39.93;102279.59;5074337;28;20130;-64
2022/01/29 02:35:45;;;;;;;8.73;4.57;;;;;;;18.53;40.20;102279.75;5080317;28;20086;-64
2022/01/29 02:38:12;;;;;;;12.23;4.30;;;;;;;18.53;40.08;102290.28;5074935;28;20040;-64
2022/01/29 02:40:57;;;;;;;7.75;4.28;;;;;;;18.50;40.00;102272.94;5078118;28;20020;-64
2022/01/29 02:43:38;;;;;;;8.10;4.30;;;;;;;18.52;40.13;102278.06;5074812;28;20579;-64
2022/01/29 02:46:20;;;;;;;7.72;4.30;;;;;;;18.49;40.11;102266.00;5080303;28;20397;-64
2022/01/29 02:48:47;;;;;;;8.73;4.72;;;;;;;18.45;40.36;102256.66;5074959;28;20040;-64
2022/01/29 02:51:13;;;;;;;9.15;4.15;;;;;;;18.46;40.21;102254.84;5076233;28;20059;-64
2022/01/29 02:53:39;;;;;;;10.95;4.78;;;;;;;18.43;40.07;102251.53;5077696;28;20063;-64
2022/01/29 02:56:05;;;;;;;11.18;4.60;;;;;;;18.40;40.09;102243.91;5078072;28;20027;-65
2022/01/29 02:58:31;;;;;;;7.03;4.47;;;;;;;18.38;40.19;102232.66;5076694;28;20040;-64
2022/01/29 03:00:57;;;;;;;14.38;5.30;;;;;;;18.45;40.11;102237.38;5074566;28;20054;-64
2022/01/29 03:03:22;;;;;;;10.32;4.43;;;;;;;18.40;40.22;102238.63;5074163;28;20072;-65
2022/01/29 03:05:48;;;;;;;7.75;4.47;;;;;;;18.41;40.17;102223.63;5077257;28;20047;-64
2022/01/29 03:08:13;;;;;;;8.45;4.70;;;;;;;18.41;40.27;102219.19;5081450;28;20549;-64
2022/01/29 03:10:39;;;;;;;11.45;4.68;;;;;;;18.36;40.34;102224.03;5074896;28;20069;-64
2022/01/29 03:13:05;;;;;;;12.80;4.90;;;;;;;18.39;40.34;102225.56;5076807;28;20048;-64
2022/01/29 03:15:33;;;;;;;11.15;4.78;;;;;;;18.39;40.15;102230.84;5075627;28;20089;-64
2022/01/29 03:17:59;;;;;;;8.18;4.47;;;;;;;18.37;40.23;102224.88;5076576;28;20131;-64
2022/01/29 03:20:25;;;;;;;9.77;4.75;;;;;;;18.38;40.25;102216.81;5075494;28;20048;-64
2022/01/29 03:22:50;;;;;;;11.85;5.40;;;;;;;18.31;40.61;102209.56;5075993;28;20497;-64
2022/01/29 03:25:16;;;;;;;8.68;4.75;;;;;;;18.28;40.47;102210.69;5077954;28;20040;-64
2022/01/29 03:27:42;;;;;;;8.00;4.65;;;;;;;18.28;40.40;102199.31;5048906;28;20043;-64
2022/01/29 03:30:09;;;;;;;9.20;4.47;;;;;;;18.29;40.50;102211.53;5078145;28;20062;-64
2022/01/29 03:32:34;;;;;;;8.65;4.68;;;;;;;18.28;40.62;102204.56;5078784;28;20480;-65
2022/01/29 03:35:00;;;;;;;9.10;5.10;;;;;;;18.28;40.40;102210.69;5081744;28;20129;-64
2022/01/29 03:37:26;;;;;;;12.00;4.70;;;;;;;18.28;40.33;102200.13;5079792;28;20057;-65
2022/01/29 03:39:53;;;;;;;10.10;4.93;;;;;;;18.25;40.42;102202.22;5082224;28;20287;-64
2022/01/29 03:42:18;;;;;;;10.73;4.80;;;;;;;18.24;40.52;102205.81;5075296;28;20054;-64
2022/01/29 03:44:44;;;;;;;10.02;4.80;;;;;;;18.27;40.61;102198.47;5062024;28;20040;-64
2022/01/29 03:47:10;;;;;;;13.00;5.07;;;;;;;18.22;40.55;102186.69;5081684;28;20385;-64
2022/01/29 03:49:35;;;;;;;10.77;4.53;;;;;;;18.25;40.56;102184.59;5093354;28;20487;-64
2022/01/29 03:52:01;;;;;;;8.13;4.88;;;;;;;18.22;40.44;102168.22;5082356;28;20619;-64
2022/01/29 03:54:26;;;;;;;8.88;4.75;;;;;;;18.22;40.58;102152.41;5089873;28;20044;-64
2022/01/29 03:56:52;;;;;;;10.48;5.25;;;;;;;18.23;40.58;102165.44;5081008;28;20393;-64
2022/01/29 03:59:17;;;;;;;9.88;5.20;;;;;;;18.20;40.58;102157.81;5083594;28;20085;-65
2022/01/29 04:01:43;;;;;;;10.23;5.28;;;;;;;18.19;40.61;102165.84;5079882;28;20040;-64
2022/01/29 04:04:09;;;;;;;9.75;4.72;;;;;;;18.17;40.71;102166.00;5065370;28;20105;-64
2022/01/29 04:06:34;;;;;;;8.27;4.65;;;;;;;18.15;40.74;102154.75;5087171;28;20036;-64
2022/01/29 04:09:04;;;;;;;9.98;4.57;;;;;;;18.10;40.73;102162.22;5081905;28;20055;-64
2022/01/29 04:11:30;;;;;;;8.18;4.38;;;;;;;18.12;40.72;102155.84;5067420;28;20036;-64
2022/01/29 04:13:56;;;;;;;12.07;4.75;;;;;;;18.06;40.75;102150.28;5081450;28;20055;-64
2022/01/29 04:16:21;;;;;;;10.15;4.90;;;;;;;18.09;40.67;102155.28;5067979;28;20047;-64
2022/01/29 04:18:47;;;;;;;12.18;5.07;;;;;;;18.11;40.73;102159.44;5082259;28;20051;-65
2022/01/29 04:21:12;;;;;;;9.52;4.72;;;;;;;18.10;40.92;102146.41;5083443;28;20036;-64
2022/01/29 04:23:38;;;;;;;9.70;4.72;;;;;;;18.12;40.73;102145.28;5082254;28;20044;-64
2022/01/29 04:26:05;;;;;;;6.95;4.28;;;;;;;18.14;40.68;102142.56;5067595;28;20047;-65
2022/01/29 04:28:36;;;;;;;7.75;4.72;;;;;;;18.15;40.72;102148.66;5083698;28;20040;-64
2022/01/29 04:31:09;;;;;;;7.85;4.20;;;;;;;18.07;40.84;102159.88;5062799;28;20716;-65
2022/01/29 04:33:34;;;;;;;10.93;4.57;;;;;;;18.08;40.93;102149.19;5081165;28;20036;-64
2022/01/29 04:36:03;;;;;;;12.15;4.63;;;;;;;18.10;40.60;102146.41;5081316;28;20161;-64
2022/01/29 04:38:29;;;;;;;9.45;4.45;;;;;;;18.08;40.79;102138.63;5083189;28;20037;-64
2022/01/29 04:40:57;;;;;;;9.55;4.20;;;;;;;18.04;40.99;102141.69;5082371;28;20036;-64
2022/01/29 04:43:24;;;;;;;10.52;4.47;;;;;;;18.03;41.03;102134.75;5082985;28;20493;-64
2022/01/29 04:49:44;;;;;;;9.77;5.07;;;;;;;18.00;40.98;102127.97;5079290;28;20046;-64
2022/01/29 04:52:09;;;;;;;5.93;3.90;;;;;;;18.04;40.76;102134.63;5081713;28;20032;-64
2022/01/29 04:54:35;;;;;;;9.32;4.75;;;;;;;18.02;40.71;102117.28;5081910;28;20039;-64
2022/01/29 04:57:00;;;;;;;12.88;5.28;;;;;;;18.01;40.82;102113.81;5084149;28;20044;-64
2022/01/29 04:59:26;;;;;;;9.45;4.72;;;;;;;18.01;40.96;102108.53;5078247;28;20036;-64
2022/01/29 05:01:51;;;;;;;8.90;4.57;;;;;;;18.07;40.93;102112.41;5083683;28;20114;-64
2022/01/29 05:04:18;;;;;;;11.63;4.93;;;;;;;18.00;40.82;102106.03;5081644;28;20048;-64
2022/01/29 05:06:43;;;;;;;11.68;4.63;;;;;;;18.03;40.85;102113.66;5083648;28;20082;-64
2022/01/29 05:09:10;;;;;;;7.88;4.90;;;;;;;18.02;40.83;102094.38;5086327;28;20687;-64
2022/01/29 05:11:35;;;;;;;7.88;4.30;;;;;;;18.02;40.92;102096.19;5081171;28;20032;-64
2022/01/29 05:14:03;;;;;;;10.77;4.35;;;;;;;18.02;40.88;102093.56;5087935;28;20109;-64
2022/01/29 05:27:33;;;;;;;9.18;4.43;;;;;;;18.05;40.89;102101.19;5081151;28;20128;-64
2022/01/29 05:29:58;;;;;;;7.32;4.00;;;;;;;18.05;40.98;102090.63;5089415;28;20413;-64
2022/01/29 05:32:24;;;;;;;6.90;4.20;;;;;;;17.87;41.14;102076.47;5079479;28;20508;-64
2022/01/29 05:34:50;;;;;;;10.65;4.97;;;;;;;18.03;41.26;102095.22;5089690;28;20042;-64
2022/01/29 05:37:15;;;;;;;9.90;4.68;;;;;;;18.00;41.06;102090.22;5080609;28;20121;-64
2022/01/29 05:39:41;;;;;;;8.98;4.70;;;;;;;18.00;40.95;102087.59;5082264;28;20574;-64
2022/01/29 05:42:07;;;;;;;11.30;4.35;;;;;;;17.97;41.21;102075.53;5075662;28;20536;-64
2022/01/29 05:44:33;;;;;;;8.80;4.57;;;;;;;18.03;41.14;102076.75;5090174;28;20141;-65
2022/01/29 05:46:58;;;;;;;9.05;4.97;;;;;;;18.01;41.20;102074.28;5076132;28;20048;-64
2022/01/29 05:49:24;;;;;;;6.95;4.25;;;;;;;17.99;41.16;102075.38;5085461;28;20036;-64
2022/01/29 05:51:49;;;;;;;7.70;4.25;;;;;;;18.00;41.27;102072.59;5079895;28;20566;-64
2022/01/29 05:54:16;;;;;;;7.63;4.18;;;;;;;18.01;41.09;102068.16;5084566;28;20400;-64
2022/01/29 05:56:41;;;;;;;8.48;4.50;;;;;;;18.03;41.22;102069.69;5086747;28;20054;-64
2022/01/29 05:59:07;;;;;;;12.30;4.40;;;;;;;18.02;41.11;102067.19;5081243;28;20529;-64
2022/01/29 06:01:32;;;;;;;7.85;4.88;;;;;;;18.04;41.23;102063.44;5078050;28;20039;-64
2022/01/29 06:03:58;;;;;;;7.75;4.30;;;;;;;18.20;40.92;102069.97;5064252;28;20052;-65
2022/01/29 06:06:23;;;;;;;8.40;4.03;;;;;;;18.40;40.53;102055.81;5076444;28;20043;-65
2022/01/29 06:08:49;;;;;;;9.93;4.22;;;;;;;18.51;40.42;102053.03;5081415;28;20141;-64
2022/01/29 06:11:16;;;;;;;8.82;4.25;;;;;;;18.57;40.42;102033.97;5082584;28;20043;-65
2022/01/29 06:13:42;;;;;;;5.88;3.70;;;;;;;18.89;40.08;102033.66;5077597;28;20146;-65
2022/01/29 06:16:08;;;;;;;8.57;3.92;;;;;;;19.15;39.52;102028.53;5080694;28;20547;-65
2022/01/29 06:18:34;;;;;;;8.55;3.97;;;;;;;19.32;39.36;102040.13;5078138;28;20100;-64
2022/01/29 06:21:04;;;;;;;8.80;4.07;;;;;;;19.57;39.15;102020.16;5084135;28;20044;-64
2022/01/29 06:23:32;;;;;;;;;;;;;;;19.63;38.97;102018.72;5077968;28;20136;-64
2022/01/29 06:26:03;;;;;;;8.20;4.63;;;;;;;19.66;38.80;102024.53;5081715;28;19920;-64
2022/01/29 06:28:29;;;;;;;6.72;3.75;;;;;;;19.70;38.83;102015.31;5075013;28;20127;-65
2022/01/29 06:30:55;;;;;;;9.63;4.00;;;;;;;19.65;39.08;102016.75;5082548;28;20036;-65
2022/01/29 06:33:20;;;;;;;10.15;4.18;;;;;;;19.54;39.22;102013.34;5085913;28;20682;-64
2022/01/29 06:35:46;;;;;;;9.15;4.28;;;;;;;19.51;39.29;102007.50;5079484;28;20085;-64
2022/01/29 06:38:14;;;;;;;6.18;4.05;;;;;;;19.45;39.50;102014.22;5089199;28;20059;-64
2022/01/29 06:40:40;;;;;;;6.85;3.90;;;;;;;19.45;39.45;101997.53;5063780;28;20035;-64
2022/01/29 06:43:06;;;;;;;9.63;4.10;;;;;;;19.45;39.46;102000.16;5082264;28;20567;-64
2022/01/29 06:45:32;;;;;;;8.25;4.07;;;;;;;19.50;39.40;102000.53;5078265;28;20048;-65
2022/01/29 06:47:58;;;;;;;6.80;3.67;;;;;;;19.64;39.23;102002.72;5080010;28;20044;-65
2022/01/29 06:50:25;;;;;;;6.90;3.60;;;;;;;19.73;39.25;101993.88;5078192;28;20491;-64
2022/01/29 06:52:50;;;;;;;7.13;3.65;;;;;;;19.91;38.90;101992.06;5065175;28;20193;-64
2022/01/29 06:55:16;;;;;;;6.05;3.67;;;;;;;19.85;38.92;101976.81;5080693;28;20031;-64
2022/01/29 06:57:42;;;;;;;9.98;4.38;;;;;;;19.87;39.00;101980.13;5080353;28;20032;-64
2022/01/29 07:00:08;;;;;;;6.43;3.85;;;;;;;19.85;39.10;101973.34;5078552;28;20039;-64
2022/01/29 07:02:35;;;;;;;9.80;3.33;;;;;;;19.86;39.12;101986.41;5068070;28;20067;-64
2022/01/29 07:05:02;;;;;;;9.63;3.72;;;;;;;19.77;38.99;101960.06;5079866;28;20036;-64
2022/01/29 07:07:28;;;;;;;7.55;3.53;;;;;;;19.79;39.13;101961.56;5083737;28;20057;-64
2022/01/29 07:09:53;;;;;;;5.20;3.55;;;;;;;19.81;39.22;101982.56;5079170;28;20660;-64
2022/01/29 07:12:19;;;;;;;9.55;4.10;;;;;;;19.86;39.13;101981.09;5078162;28;20078;-64
2022/01/29 07:14:44;;;;;;;7.45;3.83;;;;;;;19.96;38.87;101978.41;5082164;28;20105;-64
2022/01/29 07:17:16;;;;;;;7.03;3.75;;;;;;;19.99;38.80;101991.31;5078323;28;20117;-64
2022/01/29 07:19:43;;;;;;;6.80;3.28;;;;;;;20.00;38.72;101989.50;5082786;28;20489;-64
2022/01/29 07:22:09;;;;;;;8.32;3.65;;;;;;;20.03;38.73;101997.94;5060567;28;20071;-64
2022/01/29 07:24:35;;;;;;;8.10;3.80;;;;;;;19.92;39.03;101990.25;5085118;28;20761;-64
2022/01/29 07:27:02;;;;;;;6.90;3.40;;;;;;;19.96;39.05;101983.69;5074969;28;20568;-64
2022/01/29 07:29:28;;;;;;;7.53;3.97;;;;;;;19.91;39.02;101968.25;5083300;28;20105;-64
2022/01/29 07:31:56;;;;;;;7.18;3.30;;;;;;;19.86;39.14;101973.19;5078446;28;20112;-64
2022/01/29 07:34:22;;;;;;;6.20;3.70;;;;;;;19.98;38.98;101989.66;5081882;28;20044;-64
2022/01/29 07:36:48;;;;;;;6.97;3.47;;;;;;;20.07;38.82;101974.66;5075306;28;20125;-64
2022/01/29 07:39:14;;;;;;;8.00;3.42;;;;;;;20.05;38.82;101976.63;5064234;28;20047;-64
2022/01/29 07:41:39;;;;;;;6.20;3.50;;;;;;;20.11;38.69;101971.59;5079036;28;20040;-64
2022/01/29 07:44:07;;;;;;;7.97;3.78;;;;;;;20.07;38.77;101972.84;5061408;28;20101;-64
2022/01/29 07:46:32;;;;;;;6.88;3.50;;;;;;;20.14;38.63;101973.09;5073273;28;20028;-64
2022/01/29 07:48:58;;;;;;;5.75;3.28;;;;;;;20.16;38.57;101974.59;5075918;28;20507;-64
2022/01/29 07:51:23;;;;;;;6.45;3.80;;;;;;;20.20;38.33;101977.75;5086529;28;20040;-64
2022/01/29 07:53:49;;;;;;;6.03;3.53;;;;;;;20.19;38.09;101976.09;5059490;28;20067;-64
2022/01/29 07:56:14;;;;;;;5.82;3.05;;;;;;;20.13;38.49;101972.25;5079913;28;20036;-65
2022/01/29 07:58:40;;;;;;;6.90;3.15;;;;;;;20.23;38.47;101978.25;5079101;28;20179;-64
2022/01/29 08:01:05;;;;;;;4.93;3.22;;;;;;;20.18;38.46;101977.91;5063303;28;20140;-65
2022/01/29 08:03:31;;;;;;;5.60;3.63;;;;;;;20.18;38.31;101972.63;5078747;28;20036;-64
2022/01/29 08:05:56;;;;;;;8.90;3.80;;;;;;;20.17;38.31;101963.03;5079468;28;20149;-64
2022/01/29 08:08:22;;;;;;;6.65;3.45;;;;;;;20.10;38.52;101971.72;5077428;28;20043;-64
2022/01/29 08:10:47;;;;;;;9.65;3.85;;;;;;;20.09;38.42;101968.22;5081434;28;20036;-64
2022/01/29 08:13:13;;;;;;;6.18;3.53;;;;;;;19.96;38.67;101959.06;5075457;28;20090;-64
2022/01/29 08:15:38;;;;;;;6.05;3.25;;;;;;;20.00;38.63;101953.31;5079944;28;20299;-65
2022/01/29 08:18:05;;;;;;;5.75;3.28;;;;;;;19.99;38.68;101948.19;5083071;28;20471;-64
2022/01/29 08:20:31;;;;;;;8.65;3.60;;;;;;;20.03;38.39;101937.13;5080824;28;20035;-64
2022/01/29 08:22:57;;;;;;;9.27;3.33;;;;;;;20.00;38.77;101941.91;5081501;28;20036;-64
2022/01/29 08:25:22;;;;;;;4.70;3.40;;;;;;;19.91;38.70;101933.06;5080760;28;20408;-65
2022/01/29 08:27:48;;;;;;;6.22;3.58;;;;;;;19.87;38.79;101932.53;5082044;28;20556;-64
2022/01/29 08:30:13;;;;;;;6.70;3.35;;;;;;;19.90;38.92;101918.19;5078154;28;20036;-64
2022/01/29 08:32:43;;;;;;;5.95;3.42;;;;;;;19.94;38.89;101916.91;5088340;28;20517;-64
2022/01/29 08:35:11;;;;;;;6.18;3.05;;;;;;;19.91;39.18;101915.38;5080404;28;20044;-64
2022/01/29 08:37:36;;;;;;;5.47;2.90;;;;;;;19.94;39.08;101910.81;5083484;28;20047;-65
2022/01/29 08:40:03;;;;;;;7.47;3.58;;;;;;;19.94;39.07;101905.50;5079892;28;20043;-64
2022/01/29 08:42:28;;;;;;;6.30;3.05;;;;;;;20.01;39.08;101911.84;5084229;28;20785;-64
2022/01/29 08:44:54;;;;;;;9.35;3.25;;;;;;;19.99;38.94;101905.88;5081876;28;20055;-64
2022/01/29 08:47:19;;;;;;;6.38;3.20;;;;;;;20.04;38.86;101903.59;5081123;28;20035;-63
2022/01/29 08:49:45;;;;;;;5.45;3.30;;;;;;;20.12;38.79;101903.66;5077938;28;20313;-63
2022/01/29 08:52:10;;;;;;;5.38;2.95;;;;;;;20.12;38.75;101888.63;5082839;28;20036;-63
2022/01/29 08:54:36;;;;;;;5.40;2.80;;;;;;;20.13;38.75;101894.75;5079881;28;20040;-63
2022/01/29 08:57:01;;;;;;;5.05;3.38;;;;;;;20.20;38.63;101887.81;5083643;28;20040;-64
2022/01/29 08:59:27;;;;;;;5.72;3.13;;;;;;;20.18;38.60;101889.81;5078419;28;20072;-64
2022/01/29 09:01:52;;;;;;;4.25;2.97;;;;;;;20.22;38.47;101888.50;5082304;28;20051;-64
2022/01/29 09:04:18;;;;;;;6.50;3.47;;;;;;;20.12;38.66;101878.03;5082455;28;20047;-64
2022/01/29 09:06:43;;;;;;;6.35;3.25;;;;;;;20.20;38.47;101880.72;5079202;28;20043;-64
2022/01/29 09:09:09;;;;;;;5.55;3.17;;;;;;;20.07;38.79;101863.59;5066242;28;20040;-64
2022/01/29 09:11:35;;;;;;;6.95;3.47;;;;;;;20.04;38.92;101864.75;5062583;28;20044;-64
2022/01/29 09:14:00;;;;;;;4.63;2.90;;;;;;;20.01;39.17;101851.03;5080392;28;20064;-64
2022/01/29 09:16:26;;;;;;;4.95;3.20;;;;;;;19.96;39.04;101848.03;5082173;28;20043;-64
2022/01/29 09:18:51;;;;;;;7.32;3.25;;;;;;;20.01;39.09;101851.03;5082531;28;20479;-63
2022/01/29 09:21:17;;;;;;;5.45;3.05;;;;;;;20.08;38.99;101844.94;5078493;28;20509;-64
2022/01/29 09:23:44;;;;;;;4.82;3.10;;;;;;;20.13;38.93;101841.84;5083828;28;20377;-64
2022/01/29 09:26:09;;;;;;;7.65;3.33;;;;;;;20.17;38.78;101832.59;5078648;28;20054;-64
2022/01/29 09:28:35;;;;;;;6.38;3.05;;;;;;;20.20;38.68;101832.28;5081441;28;20040;-64
2022/01/29 09:31:00;;;;;;;5.53;3.00;;;;;;;20.20;38.70;101819.91;5079903;28;20114;-64
2022/01/29 09:33:26;;;;;;;7.72;3.25;;;;;;;20.22;38.73;101812.63;5081514;28;20341;-63
2022/01/29 09:35:52;;;;;;;5.32;3.10;;;;;;;20.27;38.55;101816.59;5077995;28;20429;-64
2022/01/29 09:38:17;;;;;;;8.00;3.35;;;;;;;20.24;38.66;101799.25;5082487;28;20044;-64
2022/01/29 09:40:43;;;;;;;6.03;3.13;;;;;;;20.30;38.49;101797.78;5078524;28;20032;-64
2022/01/29 09:43:10;;;;;;;5.68;2.65;;;;;;;20.27;38.55;101800.72;5079384;28;20490;-64
2022/01/29 09:45:37;;;;;;;6.38;3.10;;;;;;;20.32;38.42;101796.66;5078282;28;20556;-64
2022/01/29 09:48:04;;;;;;;5.60;2.85;;;;;;;20.23;38.84;101794.94;5082429;28;20426;-63
2022/01/29 09:50:33;;;;;;;8.80;3.15;;;;;;;20.20;38.91;101789.97;5079282;28;20114;-63
2022/01/29 09:52:59;;;;;;;6.65;3.28;;;;;;;20.17;38.95;101785.84;5077106;28;20532;-63
2022/01/29 09:55:26;;;;;;;6.53;3.50;;;;;;;20.17;38.94;101780.53;5077346;28;20508;-64
2022/01/29 09:57:53;;;;;;;6.20;2.92;;;;;;;20.04;39.17;101764.28;5057749;28;21671;-68
2022/01/29 10:00:19;;;;;;;5.72;3.10;;;;;;;20.38;39.02;101751.03;5080908;28;20302;-67
2022/01/29 10:03:10;;;;;;;5.40;3.00;;;;;;;20.47;39.37;101747.47;5080574;28;20063;-68
2022/01/29 10:05:38;;;;;;;7.03;2.65;;;;;;;20.48;39.49;101740.34;5080485;28;20439;-70
2022/01/29 10:08:05;;;;;;;9.73;3.28;;;;;;;20.51;39.70;101724.97;5083891;28;20027;-71
2022/01/29 10:10:40;;;;;;;8.75;2.75;;;;;;;20.56;39.65;101731.59;5076313;28;20493;-66
2022/01/29 10:13:29;;;;;;;5.80;2.90;;;;;;;20.60;39.60;101725.78;5061087;28;20107;-65
2022/01/29 10:16:20;;;;;;;7.78;2.88;;;;;;;20.62;39.75;101730.94;5071673;28;20044;-67
2022/01/29 10:18:58;;;;;;;5.00;2.40;;;;;;;20.52;39.75;101709.91;5082268;28;20500;-65
2022/01/29 10:21:26;;;;;;;6.93;3.13;;;;;;;20.71;39.63;101724.66;5066079;28;20028;-67
2022/01/29 10:24:11;;;;;;;9.10;3.03;;;;;;;20.77;39.55;101730.13;5080917;28;20473;-66
2022/01/29 10:26:41;;;;;;;5.03;2.50;;;;;;;20.75;39.48;101729.47;5077111;28;20036;-66
2022/01/29 10:29:09;;;;;;;5.60;2.95;;;;;;;20.72;39.54;101711.28;5064157;28;20028;-64
2022/01/29 10:31:40;;;;;;;8.15;2.88;;;;;;;20.83;39.51;101720.72;5069200;28;20028;-65
2022/01/29 10:34:27;;;;;;;4.80;2.63;;;;;;;20.81;39.60;101739.38;5076866;28;20042;-67
2022/01/29 10:37:19;;;;;;;7.32;2.55;;;;;;;20.85;39.65;101731.13;5059551;28;20144;-67
2022/01/29 10:39:59;;;;;;;4.57;2.42;;;;;;;20.89;39.40;101729.81;5051629;28;20166;-67
2022/01/29 10:42:36;;;;;;;5.15;2.50;;;;;;;20.89;39.56;101735.09;5049162;28;20472;-68
2022/01/29 10:45:07;;;;;;;7.55;3.10;;;;;;;20.87;39.41;101722.03;5068499;28;20096;-67
2022/01/29 10:47:53;;;;;;;7.68;2.60;;;;;;;20.66;39.82;101716.41;5069748;28;20148;-63
2022/01/29 10:50:20;;;;;;;7.78;2.88;;;;;;;20.49;39.88;101724.31;5073144;28;20044;-63
2022/01/29 10:52:45;;;;;;;6.05;2.55;;;;;;;20.45;39.93;101725.59;5057438;28;20036;-62
2022/01/29 10:55:11;;;;;;;9.73;3.13;;;;;;;20.39;39.86;101728.03;5078989;28;20046;-63
2022/01/29 10:57:41;;;;;;;10.23;2.80;;;;;;;20.30;39.86;101718.44;5042171;28;20072;-63
2022/01/29 11:00:07;;;;;;;6.65;2.85;;;;;;;20.32;39.97;101712.00;5074459;28;20028;-63
2022/01/29 11:02:33;;;;;;;6.93;3.00;;;;;;;20.29;39.96;101706.19;5059609;28;20036;-63
2022/01/29 11:05:04;;;;;;;8.30;3.22;;;;;;;20.27;40.03;101705.50;5067659;28;20677;-62
2022/01/29 11:07:30;;;;;;;8.40;3.08;;;;;;;20.34;40.06;101691.50;5072556;28;20063;-70
2022/01/29 11:09:59;;;;;;;8.18;2.63;;;;;;;20.16;40.49;101704.00;5058285;28;20128;-73
2022/01/29 11:12:28;;;;;;;8.70;2.72;;;;;;;20.40;40.17;101697.94;5027118;28;20043;-62
2022/01/29 11:14:55;;;;;;;9.32;3.25;;;;;;;20.42;40.10;101691.53;5056779;28;20047;-66
2022/01/29 11:17:25;;;;;;;6.93;2.53;;;;;;;20.44;40.11;101692.19;5080286;28;20028;-65
2022/01/29 11:19:50;;;;;;;8.25;2.72;;;;;;;20.46;40.08;101681.44;5056147;28;20511;-68
2022/01/29 11:22:24;;;;;;;5.93;2.50;;;;;;;20.41;40.26;101686.41;5042285;28;20268;-66
2022/01/29 11:25:02;;;;;;;4.20;2.53;;;;;;;20.59;40.05;101689.75;5049222;28;20513;-65
2022/01/29 11:27:31;;;;;;;5.00;2.40;;;;;;;20.65;39.87;101681.16;5077446;28;20034;-68
2022/01/29 11:30:04;;;;;;;6.65;3.10;;;;;;;20.51;40.15;101693.22;5027797;28;20067;-65
2022/01/29 11:32:35;;;;;;;8.73;2.90;;;;;;;20.68;39.78;101670.25;5077652;28;20111;-66
2022/01/29 11:35:01;;;;;;;6.50;2.63;;;;;;;20.77;39.85;101686.94;5047122;28;20033;-70
2022/01/29 11:37:51;;;;;;;6.82;2.58;;;;;;;20.78;39.82;101668.25;5076796;28;20040;-69
2022/01/29 11:40:21;;;;;;;9.25;2.60;;;;;;;20.78;39.73;101670.91;5050413;28;20046;-72